Nearby METAR Reports

 

KJOT - Joliet, Illinois, USA
Distance from station: SSW 3mi, 6km
Updated: Fri, 18-Oct-2019 12:55am CDT
Clear
Clear
 Wind from calm
Wind: Calm
Temperature: 39°F , 4°C
Dew Point: 39°F , 4°C
Humidity: 100%
Barometer: 30.05 inHg , 1017.6 hPa
Clouds: Clear
Visibility: 10 miles , 16 km
2019/10/18 05:55 KJOT 180555Z AUTO 00000KT 10SM CLR 04/04 A3005 RMK AO2 T00420042 10080 20037 401380021
KLOT - Romeoville/Chi, Illinois, USA
Distance from station: NE 4mi, 6km
Updated: Fri, 18-Oct-2019 12:55am CDT
Clear
Clear
 Wind from SSE
Wind: SSE 3 mph , 6 km/h
Temperature: 39°F , 4°C
Dew Point: 37°F , 3°C
Humidity: 93%
Barometer: 30.05 inHg , 1017.6 hPa
Clouds: Clear
Visibility: 10 miles , 16 km
2019/10/18 05:55 KLOT 180555Z AUTO 15003KT 10SM CLR 04/03 A3005 RMK AO2 T00390027 10090 20039 401290022
 
KC09 - Morris-Washburn, Illinois, USA
Distance from station: SW 16mi, 26km
Updated: Fri, 18-Oct-2019 12:55am CDT
Mist, Overcast
Mist, Overcast
 Wind from calm
Wind: Calm
Temperature: 41°F , 5°C
Dew Point: 39°F , 4°C
Humidity: 93%
Barometer: 30.05 inHg , 1017.6 hPa
Summary: Mist
Clouds: Overcast
Visibility: 1 1/4 miles , 2 km
Cloud details: Overcast 700 ft
2019/10/18 05:55 KC09 180555Z AUTO 00000KT 1 1/4SM BR VV007 05/04 A3005 RMK AO2 VIS 3/4V5 T00460036 10103 20046 401370013
KARR - Chicago/Aurora, Illinois, USA
Distance from station: NW 22mi, 35km
Updated: Fri, 18-Oct-2019 12:52am CDT
Clear
Clear
 Wind from calm
Wind: Calm
Temperature: 37°F , 3°C
Dew Point: 36°F , 2°C
Humidity: 93%
Barometer: 30.04 inHg , 1017.3 hPa
Clouds: Clear
Visibility: 8 miles , 13 km
2019/10/18 05:52 KARR 180552Z AUTO 00000KT 8SM CLR 03/02 A3004 RMK AO2 SLP177 T00330017 10072 20028 401330000 53002 TSNO
 
KDPA - Chicago/Dupage, Illinois, USA
Distance from station: NNW 25mi, 40km
Updated: Fri, 18-Oct-2019 12:52am CDT
Clear
Clear
 Wind from calm
Wind: Calm
Temperature: 37°F , 3°C
Dew Point: 34°F , 1°C
Humidity: 87%
Barometer: 30.04 inHg , 1017.3 hPa
Clouds: Clear
Visibility: 10 miles , 16 km
2019/10/18 05:52 KDPA 180552Z 00000KT 10SM CLR 03/01 A3004 RMK AO2 SLP176 T00330011 10089 20028 401390028 51001
KMDW - Chicago, Illinois, USA
Distance from station: NE 26mi, 42km
Updated: Fri, 18-Oct-2019 12:53am CDT
Clear
Clear
 Wind from calm
Wind: Calm
Temperature: 45°F , 7°C
Dew Point: 37°F , 3°C
Humidity: 76%
Barometer: 30.04 inHg , 1017.3 hPa
Clouds: Clear
Visibility: 10 miles , 16 km
2019/10/18 05:53 KMDW 180553Z 00000KT 10SM CLR 07/03 A3004 RMK AO2 SLP177 T00670033 10094 20061 401330050 56001
 
KORD - Chicago O'hare, Illinois, USA
Distance from station: NNE 31mi, 50km
Updated: Fri, 18-Oct-2019 12:51am CDT
Clear
Clear
 Wind from calm
Wind: Calm
Temperature: 39°F , 4°C
Dew Point: 37°F , 3°C
Humidity: 93%
Barometer: 30.04 inHg , 1017.3 hPa
Clouds: Clear
Visibility: 10 miles , 16 km
2019/10/18 05:51 KORD 180551Z 00000KT 10SM CLR 04/03 A3004 RMK AO2 SLP176 T00440033 10089 20044 401220044 56001
KIGQ - Chicago/Lansing, Illinois, USA
Distance from station: E 32mi, 52km
Updated: Fri, 18-Oct-2019 12:55am CDT
Mist, Clear
Mist, Clear
 Wind from calm
Wind: Calm
Temperature: 36°F , 2°C
Dew Point: 36°F , 2°C
Humidity: 100%
Barometer: 30.05 inHg , 1017.6 hPa
Summary: Mist
Clouds: Clear
Visibility: 3 miles , 5 km
2019/10/18 05:55 KIGQ 180555Z AUTO 00000KT 3SM BR CLR 02/02 A3005 RMK AO2 T00210021 10074 20016 401180016
 
KDKB - De Kalb, Illinois, USA
Distance from station: NW 38mi, 61km
Updated: Fri, 18-Oct-2019 12:55am CDT
Clear
Clear
 Wind from SE
Wind: SE 5 mph , 7 km/h
Temperature: 39°F , 4°C
Wind Chill: 35°F , 2°C
Dew Point: 39°F , 4°C
Humidity: 100%
Barometer: 30.05 inHg , 1017.6 hPa
Clouds: Clear
Visibility: 10 miles , 16 km
2019/10/18 05:55 KDKB 180555Z AUTO 13004KT 10SM CLR 04/04 A3005 RMK AO2 T00420036 10075 20040 401240015
KIKK - Kankakee, Illinois, USA
Distance from station: SSE 38mi, 61km
Updated: Fri, 18-Oct-2019 12:55am CDT
Clear
Clear
 Wind from calm
Wind: Calm
Temperature: 39°F , 4°C
Dew Point: 36°F , 2°C
Humidity: 87%
Barometer: 30.06 inHg , 1017.9 hPa
Clouds: Clear
Visibility: 10 miles , 16 km
2019/10/18 05:55 KIKK 180555Z AUTO 00000KT 10SM CLR 04/02 A3006 RMK AO2 T00380015 10074 20031 401360020
 
KGYY - Gary Regional, Indiana, USA
Distance from station: E 38mi, 62km
Updated: Fri, 18-Oct-2019 12:55am CDT
Clear
Clear
 Wind from calm
Wind: Calm
Temperature: 36°F , 2°C
Dew Point: 36°F , 2°C
Humidity: 100%
Barometer: 30.06 inHg , 1017.9 hPa
Clouds: Clear
Visibility: 7 miles , 11 km
2019/10/18 05:55 KGYY 180555Z AUTO 00000KT 7SM CLR 02/02 A3006 RMK AO2 T00180017 10075 20018 401250018
KPWK - Palwaukee, Illinois, USA
Distance from station: NNE 40mi, 65km
Updated: Fri, 18-Oct-2019 12:52am CDT
Clear
Clear
 Wind from calm
Wind: Calm
Temperature: 39°F , 4°C
Dew Point: 36°F , 2°C
Humidity: 87%
Barometer: 30.06 inHg , 1017.9 hPa
Clouds: Clear
Visibility: 10 miles , 16 km
2019/10/18 05:52 KPWK 180552Z AUTO 00000KT 10SM CLR 04/02 A3006 RMK AO2 SLP182 T00440022 10089 20039 401280039 51001